createdAt,value
2018-08-28T00:06:18.688Z,58.8
2018-08-28T00:16:24.055Z,58.9
2018-08-28T00:26:25.994Z,59.1
2018-08-28T00:36:28.095Z,59.1
2018-08-28T00:46:29.836Z,59.3
2018-08-28T00:56:32.017Z,59.3
2018-08-28T01:06:33.920Z,59.1
2018-08-28T01:16:35.963Z,59.1
2018-08-28T01:26:37.662Z,59
2018-08-28T01:36:39.501Z,58.9
2018-08-28T01:46:41.516Z,58.9
2018-08-28T01:56:43.156Z,58.9
2018-08-28T02:06:44.788Z,58.7
2018-08-28T02:16:46.062Z,58.7
2018-08-28T02:26:48.153Z,58.7
2018-08-28T02:36:49.852Z,58.8
2018-08-28T02:46:51.823Z,58.7
2018-08-28T02:56:53.810Z,58.7
2018-08-28T03:06:55.997Z,58.8
2018-08-28T03:16:58.005Z,58.7
2018-08-28T03:27:00.124Z,58.6
2018-08-28T03:37:01.580Z,58.6
2018-08-28T03:47:03.364Z,58.6
2018-08-28T03:57:04.945Z,58.6
2018-08-28T04:07:06.446Z,58.6
2018-08-28T04:17:08.254Z,58.7
2018-08-28T04:27:09.804Z,59
2018-08-28T04:37:11.886Z,59
2018-08-28T04:47:13.886Z,58.9
2018-08-28T04:57:15.694Z,59.3
2018-08-28T05:07:17.413Z,59.5
2018-08-28T05:17:19.629Z,59.4
2018-08-28T05:27:21.568Z,60
2018-08-28T05:37:23.533Z,59.8
2018-08-28T05:47:25.540Z,59.7
2018-08-28T05:57:27.357Z,59.6
2018-08-28T06:07:29.226Z,59.4
2018-08-28T06:17:30.926Z,60
2018-08-28T06:27:32.604Z,59.6
2018-08-28T06:37:33.984Z,59.1
2018-08-28T06:47:35.696Z,59
2018-08-28T06:57:37.913Z,58.7
2018-08-28T07:07:39.755Z,58.4
2018-08-28T07:17:42.249Z,58
2018-08-28T07:27:44.188Z,57.4
2018-08-28T07:37:46.388Z,57
2018-08-28T07:47:48.490Z,56.8
2018-08-28T07:57:50.362Z,56.6
2018-08-28T08:07:52.313Z,56.6
2018-08-28T08:17:56.240Z,56.6
2018-08-28T08:27:58.824Z,56.5
2018-08-28T08:38:02.341Z,56.5
2018-08-28T08:48:05.479Z,56.3
2018-08-28T08:58:08.780Z,56.5
2018-08-28T09:08:11.953Z,56.4
2018-08-28T09:18:13.749Z,56.4
2018-08-28T09:28:16.050Z,56.5
2018-08-28T09:38:18.222Z,56.2
2018-08-28T09:48:20.761Z,56
2018-08-28T09:58:22.253Z,56.2
2018-08-28T10:08:24.068Z,56.3
2018-08-28T10:18:26.009Z,56.3
2018-08-28T10:28:28.475Z,56.3
2018-08-28T10:38:32.033Z,56.2
2018-08-28T10:48:33.813Z,56.1
2018-08-28T10:58:35.609Z,56
2018-08-28T11:08:38.511Z,55.9
2018-08-28T11:18:40.381Z,56.1
2018-08-28T11:28:42.503Z,56
2018-08-28T11:38:44.612Z,55.9
2018-08-28T11:48:49.251Z,55.8
2018-08-28T11:58:50.926Z,55.8
2018-08-28T12:08:52.777Z,55.9
2018-08-28T12:18:54.568Z,56
2018-08-28T12:28:56.315Z,56
2018-08-28T12:38:57.964Z,56
2018-08-28T12:48:59.625Z,55.9
2018-08-28T12:59:01.654Z,56
2018-08-28T13:09:03.638Z,56
2018-08-28T13:19:05.657Z,56.1
2018-08-28T13:29:07.075Z,56
2018-08-28T13:39:09.146Z,56
2018-08-28T13:49:11.126Z,56.1
2018-08-28T13:59:13.265Z,56.1
2018-08-28T14:09:15.270Z,56.2
2018-08-28T14:19:16.773Z,56.1
2018-08-28T14:29:18.382Z,56.4
2018-08-28T14:39:19.946Z,56.4
2018-08-28T14:49:21.776Z,56.8
2018-08-28T14:59:23.634Z,56.7
2018-08-28T15:09:25.692Z,56.1
2018-08-28T15:19:27.542Z,56.2
2018-08-28T15:29:29.760Z,56.2
2018-08-28T15:39:31.514Z,56.3
2018-08-28T15:49:33.167Z,56
2018-08-28T15:59:35.004Z,55.7
2018-08-28T16:09:36.996Z,55.2
2018-08-28T16:19:39.113Z,54.2
2018-08-28T16:29:41.056Z,53
2018-08-28T16:39:42.950Z,53.4
2018-08-28T16:49:44.790Z,53.1
2018-08-28T16:59:47.125Z,53.2
2018-08-28T17:09:48.515Z,52.6
2018-08-28T17:19:50.122Z,53.1
2018-08-28T17:29:52.511Z,53.1
2018-08-28T17:39:54.857Z,53.1
2018-08-28T17:49:56.285Z,53.3
2018-08-28T17:59:58.152Z,53.4
2018-08-28T18:09:59.922Z,53.7
2018-08-28T18:20:01.881Z,53.4
2018-08-28T18:30:03.874Z,53.3
2018-08-28T18:40:05.523Z,53.7
2018-08-28T18:50:07.122Z,53.6
2018-08-28T19:00:08.839Z,53.7
2018-08-28T19:10:11.047Z,53.9
2018-08-28T19:20:12.898Z,54.2
2018-08-28T19:30:14.976Z,54.3
2018-08-28T19:40:16.798Z,54.6
2018-08-28T19:50:21.148Z,54.7
2018-08-28T20:00:23.203Z,54.8
2018-08-28T20:10:26.089Z,55
2018-08-28T20:20:28.105Z,55.1
2018-08-28T20:30:30.419Z,55.4
2018-08-28T20:40:31.890Z,55.6
2018-08-28T20:50:33.729Z,55.8
2018-08-28T21:00:36.166Z,56
2018-08-28T21:10:38.529Z,56.4
2018-08-28T21:20:40.255Z,56.6
2018-08-28T21:30:42.120Z,56.8
2018-08-28T21:40:44.165Z,56.9
2018-08-28T21:50:46.337Z,57.1
2018-08-28T22:00:48.596Z,57.2
2018-08-28T22:10:50.134Z,57.3
2018-08-28T22:20:52.443Z,57.4
2018-08-28T22:30:54.264Z,57.6
2018-08-28T22:40:56.570Z,57.6
2018-08-28T22:50:58.083Z,57.6
2018-08-28T23:00:59.552Z,57.8
2018-08-28T23:11:01.500Z,57.8
2018-08-28T23:21:03.024Z,57.9
2018-08-28T23:31:05.146Z,58
2018-08-28T23:41:07.257Z,58
2018-08-28T23:51:09.101Z,58.1
